Alpha, Washington
Current Conditions -  °F | °C
As of 10:15 PM on Wednesday 22 Oct 2014 (Local Time) from KCLS Reporting Station
Broken Clouds Broken Clouds  
Wind Chill: 55°   Ceiling: 8000
Heat Index: 55°   Visibility: 10mi
Dew Point: 52°   Wind: 7mph
Humidity: 88%   Direction: 150°SSE
Pressure: 29.69"   Gusts: NA
Location:  46.5995°N, 122.665°W
Report Text: KCLS 230515Z AUTO 15006KT 10SM FEW048 SCT065 BKN080 13/11 A2969 RMK AO2
Loading
Personal Weather Stations






























Interactive Weather Map New forecast layout! Learn more

10-Day Weather Forecast

Advertisements
Track Severe Weather on mobile